createdAt,value
2023-02-07T00:01:34.165Z,103136.87
2023-02-07T00:04:03.054Z,103133.27
2023-02-07T00:06:33.969Z,103140.85
2023-02-07T00:09:03.601Z,103127.16
2023-02-07T00:11:31.865Z,103131.96
2023-02-07T00:14:00.748Z,103121.07
2023-02-07T00:16:29.020Z,103126.34
2023-02-07T00:19:00.053Z,103136.41
2023-02-07T00:21:28.786Z,103128.33
2023-02-07T00:23:56.927Z,103134.31
2023-02-07T00:26:27.197Z,103130.20
2023-02-07T00:28:56.250Z,103136.63
2023-02-07T00:31:33.128Z,103148.70
2023-02-07T00:34:04.535Z,103151.19
2023-02-07T00:36:34.188Z,103136.73
2023-02-07T00:39:05.786Z,103138.30
2023-02-07T00:41:33.841Z,103143.80
2023-02-07T00:44:01.661Z,103142.85
2023-02-07T00:46:29.397Z,103141.93
2023-02-07T00:48:57.214Z,103143.90
2023-02-07T00:51:27.825Z,103145.79
2023-02-07T00:53:56.948Z,103142.52
2023-02-07T00:56:26.564Z,103140.40
2023-02-07T00:58:54.511Z,103137.59
2023-02-07T01:01:23.263Z,103140.76
2023-02-07T01:03:51.535Z,103145.92
2023-02-07T01:06:19.280Z,103149.06
2023-02-07T01:08:47.169Z,103161.45
2023-02-07T01:11:17.679Z,103159.00
2023-02-07T01:13:46.275Z,103165.67
2023-02-07T01:16:30.884Z,103171.98
2023-02-07T01:18:59.013Z,103164.73
2023-02-07T01:21:28.810Z,103148.60
2023-02-07T01:23:57.828Z,103147.30
2023-02-07T01:26:27.035Z,103149.26
2023-02-07T01:28:56.223Z,103149.62
2023-02-07T01:31:24.807Z,103153.61
2023-02-07T01:33:57.179Z,103145.20
2023-02-07T01:36:25.732Z,103149.52
2023-02-07T01:38:55.119Z,103148.34
2023-02-07T01:41:25.272Z,103151.94
2023-02-07T01:44:08.702Z,103154.42
2023-02-07T01:46:37.222Z,103163.32
2023-02-07T01:49:14.336Z,103158.52
2023-02-07T01:51:45.892Z,103160.87
2023-02-07T01:54:16.503Z,103161.69
2023-02-07T01:56:47.757Z,103154.42
2023-02-07T01:59:17.017Z,103146.31
2023-02-07T02:01:47.422Z,103162.37
2023-02-07T02:04:15.560Z,103156.75
2023-02-07T02:06:44.415Z,103159.55
2023-02-07T02:09:15.290Z,103162.05
2023-02-07T02:12:16.007Z,103164.37
2023-02-07T02:15:02.895Z,103167.08
2023-02-07T02:18:02.785Z,103175.35
2023-02-07T02:21:17.561Z,103177.80
2023-02-07T02:24:21.638Z,103165.64
2023-02-07T02:27:01.969Z,103174.99
2023-02-07T02:29:41.921Z,103168.45
2023-02-07T02:32:31.320Z,103178.85
2023-02-07T02:35:23.567Z,103178.39
2023-02-07T02:38:10.966Z,103173.23
2023-02-07T02:40:50.610Z,103176.04
2023-02-07T02:43:48.653Z,103171.27
2023-02-07T02:46:22.621Z,103164.34
2023-02-07T02:48:51.326Z,103171.13
2023-02-07T02:51:19.147Z,103167.87
2023-02-07T02:53:58.188Z,103174.63
2023-02-07T02:56:44.238Z,103170.19
2023-02-07T02:59:33.635Z,103168.87
2023-02-07T03:02:31.070Z,103180.45
2023-02-07T03:05:43.415Z,103185.59
2023-02-07T03:08:26.698Z,103184.80
2023-02-07T03:11:08.399Z,103179.87
2023-02-07T03:13:54.829Z,103186.63
2023-02-07T03:16:34.623Z,103189.80
2023-02-07T03:19:10.780Z,103200.53
2023-02-07T03:22:00.572Z,103205.34
2023-02-07T03:24:32.717Z,103198.90
2023-02-07T03:27:05.222Z,103209.33
2023-02-07T03:29:36.804Z,103215.73
2023-02-07T03:32:08.279Z,103218.09
2023-02-07T03:34:55.600Z,103213.97
2023-02-07T03:37:32.638Z,103223.23
2023-02-07T03:40:00.537Z,103223.23
2023-02-07T03:42:47.651Z,103228.85
2023-02-07T03:45:20.727Z,103234.12
2023-02-07T03:47:49.184Z,103241.57
2023-02-07T03:50:18.687Z,103260.41
2023-02-07T03:52:46.415Z,103263.09
2023-02-07T03:55:14.841Z,103259.13
2023-02-07T03:57:42.682Z,103267.86
2023-02-07T04:00:11.423Z,103269.86
2023-02-07T04:02:39.330Z,103267.41
2023-02-07T04:05:07.877Z,103263.28
2023-02-07T04:07:35.807Z,103260.96
2023-02-07T04:10:04.522Z,103269.73
2023-02-07T04:12:34.065Z,103273.35
2023-02-07T04:15:02.340Z,103264.82
2023-02-07T04:17:31.495Z,103275.19
2023-02-07T04:19:59.653Z,103268.74
2023-02-07T04:22:27.317Z,103267.96
2023-02-07T04:24:55.088Z,103260.70
2023-02-07T04:27:22.969Z,103269.43
2023-02-07T04:29:50.739Z,103273.42
2023-02-07T04:32:18.432Z,103259.72
2023-02-07T04:34:46.212Z,103259.23
2023-02-07T04:37:13.996Z,103263.67
2023-02-07T04:39:41.706Z,103268.02
2023-02-07T04:42:09.441Z,103265.34
2023-02-07T04:44:37.195Z,103263.22
2023-02-07T04:47:04.904Z,103266.03
2023-02-07T04:49:34.462Z,103270.48
2023-02-07T04:52:02.434Z,103261.91
2023-02-07T04:54:30.183Z,103260.41
2023-02-07T04:56:57.883Z,103265.21
2023-02-07T04:59:25.856Z,103273.29
2023-02-07T05:01:53.586Z,103278.88
2023-02-07T05:04:21.409Z,103281.70
2023-02-07T05:06:49.267Z,103286.83
2023-02-07T05:09:17.015Z,103288.01
2023-02-07T05:11:44.719Z,103288.46
2023-02-07T05:14:12.542Z,103308.97
2023-02-07T05:16:40.351Z,103310.44
2023-02-07T05:19:08.431Z,103303.18
2023-02-07T05:21:36.117Z,103306.48
2023-02-07T05:24:03.896Z,103308.61
2023-02-07T05:26:31.614Z,103301.80
2023-02-07T05:28:59.346Z,103297.84
2023-02-07T05:31:47.247Z,103301.02
2023-02-07T05:34:15.078Z,103298.99
2023-02-07T05:36:42.820Z,103292.59
2023-02-07T05:39:10.651Z,103287.32
2023-02-07T05:41:38.313Z,103284.51
2023-02-07T05:44:06.118Z,103291.60
2023-02-07T05:46:33.927Z,103297.23
2023-02-07T05:49:01.731Z,103278.75
2023-02-07T05:51:29.426Z,103276.30
2023-02-07T05:53:57.130Z,103266.36
2023-02-07T05:56:24.877Z,103279.57
2023-02-07T05:58:52.678Z,103290.82
2023-02-07T06:01:20.527Z,103297.03
2023-02-07T06:03:48.344Z,103285.81
2023-02-07T06:06:16.092Z,103287.45
2023-02-07T06:08:44.082Z,103296.34
2023-02-07T06:11:12.068Z,103282.15
2023-02-07T06:13:40.489Z,103281.01
2023-02-07T06:16:08.522Z,103279.05
2023-02-07T06:18:36.283Z,103285.26
2023-02-07T06:21:04.033Z,103275.55
2023-02-07T06:23:31.924Z,103279.96
2023-02-07T06:25:59.692Z,103282.45
2023-02-07T06:28:27.573Z,103284.80
2023-02-07T06:30:55.640Z,103293.95
2023-02-07T06:33:23.415Z,103296.54
2023-02-07T06:35:51.207Z,103302.30
2023-02-07T06:38:20.162Z,103312.17
2023-02-07T06:40:48.061Z,103321.06
2023-02-07T06:43:16.231Z,103319.30
2023-02-07T06:45:43.946Z,103331.01
2023-02-07T06:48:11.972Z,103333.00
2023-02-07T06:50:39.779Z,103331.01
2023-02-07T06:53:07.551Z,103326.23
2023-02-07T06:55:41.206Z,103331.82
2023-02-07T06:58:09.632Z,103323.74
2023-02-07T07:00:37.500Z,103321.88
2023-02-07T07:03:06.215Z,103321.69
2023-02-07T07:05:34.488Z,103319.20
2023-02-07T07:08:02.269Z,103312.43
2023-02-07T07:10:30.417Z,103313.05
2023-02-07T07:12:58.158Z,103309.00
2023-02-07T07:15:26.073Z,103308.70
2023-02-07T07:17:53.910Z,103313.09
2023-02-07T07:20:22.023Z,103306.09
2023-02-07T07:22:50.038Z,103312.76
2023-02-07T07:25:17.761Z,103323.32
2023-02-07T07:27:45.611Z,103321.49
2023-02-07T07:30:14.104Z,103325.25
2023-02-07T07:32:41.816Z,103338.95
2023-02-07T07:35:09.807Z,103338.69
2023-02-07T07:37:37.504Z,103336.59
2023-02-07T07:40:05.727Z,103339.28
2023-02-07T07:42:33.411Z,103343.76
2023-02-07T07:45:01.151Z,103341.30
2023-02-07T07:47:29.122Z,103338.27
2023-02-07T07:49:56.870Z,103350.23
2023-02-07T07:52:24.657Z,103338.40
2023-02-07T07:54:52.388Z,103347.91
2023-02-07T07:57:21.335Z,103342.38
2023-02-07T07:59:49.490Z,103337.94
2023-02-07T08:02:17.309Z,103340.75
2023-02-07T08:04:45.026Z,103345.69
2023-02-07T08:07:12.744Z,103349.19
2023-02-07T08:09:40.554Z,103348.86
2023-02-07T08:12:08.547Z,103359.98
2023-02-07T08:14:36.384Z,103366.68
2023-02-07T08:17:04.264Z,103354.62
2023-02-07T08:19:32.019Z,103364.33
2023-02-07T08:21:59.690Z,103366.78
2023-02-07T08:24:29.419Z,103368.55
2023-02-07T08:26:57.308Z,103370.64
2023-02-07T08:29:25.057Z,103367.17
2023-02-07T08:31:52.956Z,103363.73
2023-02-07T08:34:25.234Z,103373.38
2023-02-07T08:36:54.278Z,103362.59
2023-02-07T08:39:22.168Z,103354.71
2023-02-07T08:41:49.884Z,103355.07
2023-02-07T08:44:17.686Z,103364.46
2023-02-07T08:46:45.395Z,103356.09
2023-02-07T08:49:13.177Z,103356.58
2023-02-07T08:51:40.844Z,103361.84
2023-02-07T08:54:08.626Z,103362.43
2023-02-07T08:56:36.386Z,103364.91
2023-02-07T08:59:04.670Z,103369.46
2023-02-07T09:01:32.549Z,103375.67
2023-02-07T09:04:00.408Z,103371.69
2023-02-07T09:06:28.862Z,103383.20
2023-02-07T09:09:00.273Z,103376.13
2023-02-07T09:11:31.372Z,103364.23
2023-02-07T09:13:59.150Z,103369.20
2023-02-07T09:16:26.989Z,103369.30
2023-02-07T09:18:54.689Z,103374.79
2023-02-07T09:21:22.679Z,103364.20
2023-02-07T09:23:50.436Z,103366.39
2023-02-07T09:26:20.467Z,103362.13
2023-02-07T09:28:48.822Z,103366.95
2023-02-07T09:31:17.624Z,103373.41
2023-02-07T09:33:45.483Z,103375.41
2023-02-07T09:36:27.652Z,103374.23
2023-02-07T09:38:55.958Z,103371.85
2023-02-07T09:41:27.905Z,103388.20
2023-02-07T09:44:04.309Z,103386.37
2023-02-07T09:46:35.907Z,103389.34
2023-02-07T09:49:25.480Z,103389.21
2023-02-07T09:51:55.512Z,103390.78
2023-02-07T09:54:44.434Z,103384.77
2023-02-07T09:57:23.937Z,103388.52
2023-02-07T10:00:01.245Z,103399.19
2023-02-07T10:02:37.206Z,103393.27
2023-02-07T10:05:15.451Z,103399.74
2023-02-07T10:07:48.022Z,103394.67
2023-02-07T10:10:24.889Z,103401.60
2023-02-07T10:13:08.530Z,103399.61
2023-02-07T10:15:46.177Z,103411.91
2023-02-07T10:18:27.506Z,103416.84
2023-02-07T10:21:06.090Z,103424.92
2023-02-07T10:23:39.580Z,103427.05
2023-02-07T10:26:24.953Z,103434.89
2023-02-07T10:28:55.270Z,103436.13
2023-02-07T10:31:26.157Z,103428.98
2023-02-07T10:33:59.736Z,103431.07
2023-02-07T10:36:30.753Z,103434.63
2023-02-07T10:39:09.891Z,103439.08
2023-02-07T10:41:39.673Z,103435.05
2023-02-07T10:44:10.862Z,103424.27
2023-02-07T10:46:41.960Z,103427.99
2023-02-07T10:49:28.392Z,103433.36
2023-02-07T10:52:24.141Z,103430.88
2023-02-07T10:55:12.611Z,103422.60
2023-02-07T10:57:42.138Z,103427.18
2023-02-07T11:00:31.259Z,103416.32
2023-02-07T11:03:14.015Z,103400.69
2023-02-07T11:05:55.346Z,103415.80
2023-02-07T11:08:25.048Z,103411.45
2023-02-07T11:10:56.275Z,103413.64
2023-02-07T11:13:33.803Z,103422.73
2023-02-07T11:16:05.783Z,103418.91
2023-02-07T11:18:47.339Z,103419.07
2023-02-07T11:21:23.874Z,103417.70
2023-02-07T11:23:54.760Z,103424.62
2023-02-07T11:26:24.363Z,103424.37
2023-02-07T11:28:55.473Z,103419.88
2023-02-07T11:31:32.909Z,103425.90
2023-02-07T11:34:38.098Z,103421.16
2023-02-07T11:37:17.916Z,103428.26
2023-02-07T11:39:46.547Z,103417.86
2023-02-07T11:42:33.299Z,103419.23
2023-02-07T11:45:06.606Z,103413.93
2023-02-07T11:47:36.416Z,103425.15
2023-02-07T11:50:09.400Z,103423.52
2023-02-07T11:52:40.952Z,103421.59
2023-02-07T11:55:15.888Z,103427.70
2023-02-07T11:57:43.665Z,103433.26
2023-02-07T12:00:31.376Z,103428.42
2023-02-07T12:03:12.652Z,103419.23
2023-02-07T12:05:43.833Z,103410.37
2023-02-07T12:08:19.462Z,103411.64
2023-02-07T12:10:51.860Z,103412.59
2023-02-07T12:13:28.429Z,103401.77
2023-02-07T12:16:02.101Z,103403.47
2023-02-07T12:18:37.028Z,103406.38
2023-02-07T12:21:34.506Z,103408.11
2023-02-07T12:24:07.013Z,103403.73
2023-02-07T12:26:44.016Z,103408.27
2023-02-07T12:29:34.073Z,103406.31
2023-02-07T12:32:10.806Z,103409.62
2023-02-07T12:35:22.956Z,103412.46
2023-02-07T12:38:02.815Z,103412.98
2023-02-07T12:40:49.052Z,103408.11
2023-02-07T12:43:27.122Z,103413.02
2023-02-07T12:46:03.866Z,103413.18
2023-02-07T12:49:09.993Z,103410.80
2023-02-07T12:52:17.162Z,103411.71
2023-02-07T12:55:04.389Z,103406.87
2023-02-07T12:57:44.172Z,103411.32
2023-02-07T13:00:45.043Z,103412.66
2023-02-07T13:03:43.388Z,103403.73
2023-02-07T13:06:50.640Z,103408.57
2023-02-07T13:09:56.053Z,103412.13
2023-02-07T13:12:39.668Z,103399.28
2023-02-07T13:15:30.710Z,103397.26
2023-02-07T13:18:12.960Z,103393.13
2023-02-07T13:20:59.149Z,103393.13
2023-02-07T13:23:31.767Z,103401.28
2023-02-07T13:26:21.088Z,103396.14
2023-02-07T13:28:57.498Z,103391.66
2023-02-07T13:31:57.575Z,103389.27
2023-02-07T13:34:43.355Z,103394.25
2023-02-07T13:37:17.286Z,103387.91
2023-02-07T13:40:03.429Z,103389.60
2023-02-07T13:43:04.813Z,103387.61
2023-02-07T13:45:56.663Z,103385.62
2023-02-07T13:48:40.332Z,103376.55
2023-02-07T13:51:44.064Z,103375.91
2023-02-07T13:54:53.016Z,103377.44
2023-02-07T13:58:00.472Z,103369.10
2023-02-07T14:00:34.700Z,103364.33
2023-02-07T14:03:05.871Z,103367.17
2023-02-07T14:05:44.922Z,103365.60
2023-02-07T14:08:18.493Z,103365.90
2023-02-07T14:10:57.295Z,103376.16
2023-02-07T14:13:31.564Z,103375.80
2023-02-07T14:16:06.323Z,103376.55
2023-02-07T14:18:56.015Z,103381.00
2023-02-07T14:21:29.964Z,103377.27
2023-02-07T14:24:10.070Z,103374.37
2023-02-07T14:26:40.781Z,103367.56
2023-02-07T14:29:26.654Z,103372.24
2023-02-07T14:32:02.635Z,103366.13
2023-02-07T14:34:59.117Z,103369.30
2023-02-07T14:37:50.082Z,103371.78
2023-02-07T14:40:22.915Z,103371.03
2023-02-07T14:43:01.644Z,103379.59
2023-02-07T14:45:36.306Z,103374.17
2023-02-07T14:48:06.573Z,103374.43
2023-02-07T14:50:35.073Z,103370.84
2023-02-07T14:53:07.063Z,103368.97
2023-02-07T14:55:47.470Z,103364.88
2023-02-07T14:58:41.682Z,103364.85
2023-02-07T15:01:15.749Z,103364.26
2023-02-07T15:03:43.686Z,103365.24
2023-02-07T15:06:31.679Z,103358.84
2023-02-07T15:09:02.018Z,103367.17
2023-02-07T15:11:31.281Z,103356.94
2023-02-07T15:14:03.696Z,103358.12
2023-02-07T15:16:34.564Z,103357.98
2023-02-07T15:19:20.698Z,103359.62
2023-02-07T15:21:50.735Z,103353.77
2023-02-07T15:24:24.445Z,103359.06
2023-02-07T15:26:57.481Z,103366.26
2023-02-07T15:29:30.396Z,103362.56
2023-02-07T15:31:58.951Z,103368.41
2023-02-07T15:34:32.993Z,103374.34
2023-02-07T15:37:12.863Z,103368.12
2023-02-07T15:39:40.790Z,103380.02
2023-02-07T15:42:10.492Z,103381.52
2023-02-07T15:44:50.233Z,103380.48
2023-02-07T15:47:30.007Z,103390.36
2023-02-07T15:50:03.397Z,103389.70
2023-02-07T15:52:55.661Z,103391.50
2023-02-07T15:55:39.002Z,103398.20
2023-02-07T15:58:07.252Z,103395.85
2023-02-07T16:00:41.488Z,103408.57
2023-02-07T16:03:19.466Z,103406.48
2023-02-07T16:05:47.128Z,103401.15
2023-02-07T16:08:33.733Z,103389.21
2023-02-07T16:11:28.287Z,103398.83
2023-02-07T16:14:12.023Z,103395.00
2023-02-07T16:17:01.601Z,103401.21
2023-02-07T16:19:31.650Z,103404.65
2023-02-07T16:22:04.743Z,103418.97
2023-02-07T16:24:36.297Z,103415.14
2023-02-07T16:27:05.739Z,103417.79
2023-02-07T16:29:33.662Z,103414.33
2023-02-07T16:32:01.577Z,103421.45
2023-02-07T16:34:29.642Z,103424.43
2023-02-07T16:36:58.655Z,103427.54
2023-02-07T16:39:26.474Z,103422.89
2023-02-07T16:42:04.681Z,103430.02
2023-02-07T16:44:36.398Z,103426.16
2023-02-07T16:47:04.520Z,103421.98
2023-02-07T16:49:33.645Z,103432.24
2023-02-07T16:52:01.450Z,103430.02
2023-02-07T16:54:29.092Z,103436.86
2023-02-07T16:57:00.174Z,103437.48
2023-02-07T16:59:29.268Z,103451.02
2023-02-07T17:01:57.197Z,103458.11
2023-02-07T17:04:24.909Z,103457.75
2023-02-07T17:06:52.952Z,103456.38
2023-02-07T17:09:23.644Z,103461.91
2023-02-07T17:11:52.441Z,103455.59
2023-02-07T17:14:20.743Z,103463.31
2023-02-07T17:16:49.172Z,103465.56
2023-02-07T17:19:26.232Z,103472.73
2023-02-07T17:21:54.049Z,103473.91
2023-02-07T17:24:21.814Z,103472.73
2023-02-07T17:26:53.382Z,103472.27
2023-02-07T17:29:21.597Z,103474.30
2023-02-07T17:31:50.228Z,103475.12
2023-02-07T17:34:18.027Z,103478.29
2023-02-07T17:36:49.835Z,103477.01
2023-02-07T17:39:19.390Z,103480.05
2023-02-07T17:41:47.119Z,103482.08
2023-02-07T17:44:15.452Z,103482.31
2023-02-07T17:46:43.158Z,103468.02
2023-02-07T17:49:15.179Z,103470.93
2023-02-07T17:51:42.878Z,103475.87
2023-02-07T17:54:10.628Z,103468.84
2023-02-07T17:56:38.479Z,103470.24
2023-02-07T17:59:08.579Z,103469.33
2023-02-07T18:01:36.259Z,103470.51
2023-02-07T18:04:04.272Z,103469.91
2023-02-07T18:06:32.398Z,103477.66
2023-02-07T18:09:00.186Z,103480.48
2023-02-07T18:11:29.014Z,103477.73
2023-02-07T18:13:57.995Z,103474.92
2023-02-07T18:16:28.171Z,103477.86
2023-02-07T18:18:57.702Z,103469.30
2023-02-07T18:21:26.308Z,103473.61
2023-02-07T18:23:54.454Z,103474.46
2023-02-07T18:26:22.738Z,103472.56
2023-02-07T18:28:50.873Z,103475.60
2023-02-07T18:31:22.265Z,103475.73
2023-02-07T18:33:51.515Z,103478.32
2023-02-07T18:36:20.505Z,103481.59
2023-02-07T18:38:48.231Z,103480.80
2023-02-07T18:41:24.366Z,103482.77
2023-02-07T18:43:52.179Z,103481.27
2023-02-07T18:46:21.999Z,103475.64
2023-02-07T18:48:54.565Z,103474.82
2023-02-07T18:51:22.338Z,103466.38
2023-02-07T18:53:51.569Z,103476.81
2023-02-07T18:56:23.123Z,103468.84
2023-02-07T18:58:53.980Z,103458.41
2023-02-07T19:01:22.237Z,103467.66
2023-02-07T19:03:59.534Z,103459.91
2023-02-07T19:06:30.227Z,103461.91
2023-02-07T19:08:58.495Z,103457.33
2023-02-07T19:11:26.754Z,103455.69
2023-02-07T19:13:54.846Z,103458.02
2023-02-07T19:16:24.578Z,103454.88
2023-02-07T19:18:52.552Z,103458.99
2023-02-07T19:21:24.860Z,103458.27
2023-02-07T19:23:52.659Z,103462.85
2023-02-07T19:26:21.366Z,103457.95
2023-02-07T19:28:49.110Z,103458.77
2023-02-07T19:31:19.189Z,103447.26
2023-02-07T19:33:50.821Z,103447.94
2023-02-07T19:36:21.001Z,103446.77
2023-02-07T19:38:49.837Z,103443.76
2023-02-07T19:41:20.229Z,103453.96
2023-02-07T19:43:48.410Z,103455.13
2023-02-07T19:46:16.664Z,103453.70
2023-02-07T19:48:45.337Z,103453.56
2023-02-07T19:51:17.057Z,103460.27
2023-02-07T19:53:46.287Z,103460.76
2023-02-07T19:56:15.311Z,103453.11
2023-02-07T19:58:46.025Z,103452.91
2023-02-07T20:01:13.992Z,103447.02
2023-02-07T20:03:43.921Z,103441.63
2023-02-07T20:06:14.559Z,103447.62
2023-02-07T20:08:42.714Z,103446.66
2023-02-07T20:11:13.549Z,103445.39
2023-02-07T20:13:44.245Z,103437.61
2023-02-07T20:16:15.541Z,103442.55
2023-02-07T20:18:44.038Z,103433.84
2023-02-07T20:21:17.277Z,103431.76
2023-02-07T20:23:47.925Z,103427.63
2023-02-07T20:26:18.893Z,103419.07
2023-02-07T20:28:47.562Z,103423.16
2023-02-07T20:31:18.268Z,103419.85
2023-02-07T20:33:46.709Z,103417.40
2023-02-07T20:36:17.433Z,103428.19
2023-02-07T20:38:47.160Z,103428.52
2023-02-07T20:41:29.974Z,103437.77
2023-02-07T20:44:04.777Z,103429.47
2023-02-07T20:46:34.402Z,103434.41
2023-02-07T20:49:08.233Z,103428.29
2023-02-07T20:51:36.207Z,103434.77
2023-02-07T20:54:06.211Z,103438.59
2023-02-07T20:56:34.761Z,103426.88
2023-02-07T20:59:02.463Z,103437.77
2023-02-07T21:01:32.663Z,103428.19
2023-02-07T21:04:02.740Z,103432.77
2023-02-07T21:06:31.026Z,103432.08
2023-02-07T21:09:02.817Z,103427.14
2023-02-07T21:11:37.454Z,103427.02
2023-02-07T21:14:07.459Z,103429.83
2023-02-07T21:16:36.429Z,103431.00
2023-02-07T21:19:04.603Z,103434.41
2023-02-07T21:21:33.262Z,103430.41
2023-02-07T21:24:01.659Z,103429.95
2023-02-07T21:26:30.411Z,103432.28
2023-02-07T21:29:04.266Z,103425.97
2023-02-07T21:31:35.652Z,103420.11
2023-02-07T21:34:04.985Z,103423.52
2023-02-07T21:36:38.673Z,103419.52
2023-02-07T21:39:11.848Z,103408.51
2023-02-07T21:41:42.833Z,103410.37
2023-02-07T21:44:11.681Z,103409.55
2023-02-07T21:46:42.655Z,103408.27
2023-02-07T21:49:15.740Z,103406.97
2023-02-07T21:51:46.040Z,103402.88
2023-02-07T21:54:14.241Z,103404.65
2023-02-07T21:56:44.271Z,103406.15
2023-02-07T21:59:17.535Z,103403.80
2023-02-07T22:01:47.168Z,103411.05
2023-02-07T22:04:15.868Z,103408.83
2023-02-07T22:06:45.708Z,103404.84
2023-02-07T22:09:16.145Z,103409.55
2023-02-07T22:11:44.969Z,103402.06
2023-02-07T22:14:14.158Z,103404.55
2023-02-07T22:16:42.160Z,103406.87
2023-02-07T22:19:13.416Z,103404.74
2023-02-07T22:21:41.774Z,103393.73
2023-02-07T22:24:11.784Z,103401.21
2023-02-07T22:26:39.716Z,103405.89
2023-02-07T22:29:08.755Z,103408.93
2023-02-07T22:31:39.477Z,103405.98
2023-02-07T22:34:10.432Z,103410.66
2023-02-07T22:36:40.747Z,103404.68
2023-02-07T22:39:10.029Z,103410.30
2023-02-07T22:41:38.026Z,103412.66
2023-02-07T22:44:06.251Z,103414.49
2023-02-07T22:46:34.011Z,103415.80
2023-02-07T22:49:01.845Z,103417.82
2023-02-07T22:51:35.489Z,103420.63
2023-02-07T22:54:06.730Z,103420.63
2023-02-07T22:56:36.362Z,103418.28
2023-02-07T22:59:04.865Z,103417.92
2023-02-07T23:01:35.879Z,103416.78
2023-02-07T23:04:05.799Z,103411.16
2023-02-07T23:06:34.393Z,103417.73
2023-02-07T23:09:02.519Z,103410.44
2023-02-07T23:11:30.439Z,103417.59
2023-02-07T23:13:58.390Z,103415.47
2023-02-07T23:16:28.793Z,103409.26
2023-02-07T23:18:59.087Z,103406.64
2023-02-07T23:21:28.023Z,103401.24
2023-02-07T23:23:58.311Z,103407.88
2023-02-07T23:26:27.585Z,103408.60
2023-02-07T23:28:55.671Z,103405.30
2023-02-07T23:31:25.351Z,103405.98
2023-02-07T23:33:54.474Z,103407.98
2023-02-07T23:36:22.972Z,103403.86
2023-02-07T23:38:51.607Z,103406.80
2023-02-07T23:41:20.221Z,103402.72
2023-02-07T23:43:48.242Z,103402.00
2023-02-07T23:46:17.600Z,103399.67
2023-02-07T23:48:45.556Z,103397.35
2023-02-07T23:51:14.772Z,103382.73
2023-02-07T23:53:43.959Z,103391.77
2023-02-07T23:56:16.245Z,103392.71
2023-02-07T23:58:45.944Z,103390.03
